createdAt,value
2019-02-21T06:40:48.403Z,12.02
2019-02-21T06:41:58.770Z,13.22
2019-02-21T06:42:49.375Z,12.32
2019-02-21T06:43:48.367Z,11.72
2019-02-21T06:44:48.354Z,12.63
2019-02-21T06:45:48.352Z,12.23
2019-02-21T06:46:48.368Z,12.45
2019-02-21T06:47:48.330Z,16.38
2019-02-21T06:48:55.298Z,14.20
2019-02-21T06:49:48.312Z,15.59
2019-02-21T06:50:48.276Z,22.05
2019-02-21T06:51:57.383Z,32.83
2019-02-21T06:52:48.373Z,41.36
2019-02-21T06:53:48.252Z,49.49
2019-02-21T06:54:48.243Z,53.81
2019-02-21T06:55:48.304Z,56.93
2019-02-21T06:56:48.218Z,57.81
2019-02-21T06:57:48.246Z,58.80
2019-02-21T06:58:48.207Z,59.55
2019-02-21T06:59:48.177Z,59.76
2019-02-21T07:00:48.173Z,60.08
2019-02-21T07:01:48.156Z,60.19
2019-02-21T07:02:48.150Z,60.50
2019-02-21T07:03:48.178Z,60.50
2019-02-21T07:04:48.180Z,60.29
2019-02-21T07:05:48.120Z,60.40
2019-02-21T07:06:48.146Z,60.40
2019-02-21T07:07:48.092Z,60.40
2019-02-21T07:08:48.098Z,60.83
2019-02-21T07:09:48.105Z,60.40
2019-02-21T07:10:48.062Z,60.53
2019-02-21T07:11:48.089Z,60.75
2019-02-21T07:12:48.053Z,60.83
2019-02-21T07:13:48.033Z,60.72
2019-02-21T07:14:48.873Z,60.40
2019-02-21T07:15:48.008Z,60.93
2019-02-21T07:16:48.015Z,60.61
2019-02-21T07:17:49.594Z,60.27
2019-02-21T07:18:47.979Z,60.58
2019-02-21T07:19:47.964Z,60.48
2019-02-21T07:20:47.962Z,60.02
2019-02-21T07:21:47.958Z,59.28
2019-02-21T07:23:00.985Z,59.20
2019-02-21T07:23:47.931Z,59.30
2019-02-21T07:24:47.913Z,59.52
2019-02-21T07:25:50.448Z,59.52
2019-02-21T07:26:47.895Z,59.49
2019-02-21T07:27:47.887Z,58.75
2019-02-21T07:28:47.925Z,58.85
2019-02-21T07:29:47.865Z,58.64
2019-02-21T07:30:47.854Z,58.77
2019-02-21T07:31:49.382Z,58.75
2019-02-21T07:32:47.832Z,59.09
2019-02-21T07:33:48.460Z,58.64
2019-02-21T07:34:47.847Z,58.85
2019-02-21T07:35:47.805Z,58.53
2019-02-21T07:36:50.003Z,58.13
2019-02-21T07:37:47.785Z,58.53
2019-02-21T07:38:47.810Z,58.21
2019-02-21T07:39:47.790Z,58.40
2019-02-21T07:40:47.787Z,58.11
2019-02-21T07:41:49.971Z,58.64
2019-02-21T07:42:48.151Z,57.87
2019-02-21T07:43:47.720Z,58.08
2019-02-21T07:44:47.760Z,57.65
2019-02-21T07:45:47.698Z,58.32
2019-02-21T07:46:47.856Z,57.76
2019-02-21T07:47:47.676Z,57.54
2019-02-21T07:48:47.667Z,57.33
2019-02-21T07:49:47.734Z,57.76
2019-02-21T07:50:47.647Z,58.05
2019-02-21T07:51:47.635Z,57.09
2019-02-21T07:52:47.652Z,57.01
2019-02-21T07:54:00.021Z,56.05
2019-02-21T07:54:49.469Z,56.37
2019-02-21T07:55:48.591Z,57.01
2019-02-21T07:56:47.585Z,57.01
2019-02-21T07:57:47.598Z,57.01
2019-02-21T07:58:47.628Z,56.37
2019-02-21T07:59:47.549Z,56.37
2019-02-21T08:00:47.549Z,56.03
2019-02-21T08:01:47.538Z,56.27
2019-02-21T08:02:47.524Z,56.05
2019-02-21T08:03:48.612Z,56.70
2019-02-21T08:04:47.578Z,56.24
2019-02-21T08:05:47.489Z,55.36
2019-02-21T08:06:47.479Z,55.47
2019-02-21T08:07:49.704Z,54.94
2019-02-21T08:08:47.461Z,54.72
2019-02-21T08:09:47.461Z,54.64
2019-02-21T08:10:47.447Z,54.33
2019-02-21T08:11:47.438Z,55.94
2019-02-21T08:12:47.412Z,55.74
2019-02-21T08:13:47.402Z,55.68
2019-02-21T08:14:47.403Z,54.22
2019-02-21T08:15:47.428Z,54.22
2019-02-21T08:16:47.385Z,54.54
2019-02-21T08:17:47.367Z,55.29
2019-02-21T08:18:47.365Z,54.86
2019-02-21T08:19:47.345Z,54.11
2019-02-21T08:20:47.336Z,54.43
2019-02-21T08:21:47.585Z,55.07
2019-02-21T08:22:47.319Z,54.52
2019-02-21T08:23:50.466Z,54.41
2019-02-21T08:24:59.236Z,54.43
2019-02-21T08:25:47.284Z,53.66
2019-02-21T08:26:47.281Z,53.58
2019-02-21T08:27:47.298Z,54.41
2019-02-21T08:28:47.246Z,53.32
2019-02-21T08:29:47.253Z,53.77
2019-02-21T08:30:47.232Z,53.88
2019-02-21T08:31:47.213Z,54.19
2019-02-21T08:32:47.207Z,54.17
2019-02-21T08:33:58.017Z,53.42
2019-02-21T08:34:48.438Z,53.74
2019-02-21T08:35:47.176Z,53.53
2019-02-21T08:36:47.192Z,53.42
2019-02-21T08:37:47.151Z,53.42
2019-02-21T08:38:47.151Z,53.74
2019-02-21T08:39:47.177Z,53.00
2019-02-21T08:40:47.132Z,52.47
2019-02-21T08:41:47.113Z,52.58
2019-02-21T08:42:47.107Z,53.32
2019-02-21T08:43:47.093Z,53.02
2019-02-21T08:44:47.087Z,53.45
2019-02-21T08:45:47.089Z,53.13
2019-02-21T08:46:47.073Z,53.69
2019-02-21T08:47:47.050Z,53.45
2019-02-21T08:48:47.882Z,53.45
2019-02-21T08:49:47.030Z,53.55
2019-02-21T08:50:47.021Z,53.55
2019-02-21T08:51:47.034Z,53.26
2019-02-21T08:52:46.997Z,53.34
2019-02-21T08:53:46.988Z,53.34
2019-02-21T08:54:46.980Z,53.32
2019-02-21T08:55:58.996Z,53.19
2019-02-21T08:56:46.953Z,52.89
2019-02-21T08:57:46.946Z,53.53
2019-02-21T08:58:46.940Z,52.36
2019-02-21T08:59:46.939Z,52.97
2019-02-21T09:00:47.233Z,52.76
2019-02-21T09:01:46.970Z,52.12
2019-02-21T09:02:46.892Z,52.58
2019-02-21T09:03:46.904Z,51.93
2019-02-21T09:04:46.874Z,52.89
2019-02-21T09:05:46.868Z,53.00
2019-02-21T09:06:46.863Z,51.96
2019-02-21T09:07:46.880Z,53.21
2019-02-21T09:08:46.829Z,52.55
2019-02-21T09:09:46.820Z,52.76
2019-02-21T09:10:46.806Z,51.62
2019-02-21T09:11:46.806Z,52.58
2019-02-21T09:12:48.471Z,52.12
2019-02-21T09:13:46.957Z,52.63
2019-02-21T09:14:46.827Z,52.10
2019-02-21T09:15:46.782Z,51.78
2019-02-21T09:16:46.751Z,51.38
2019-02-21T09:17:46.755Z,52.12
2019-02-21T09:18:46.743Z,52.15
2019-02-21T09:19:46.750Z,51.59
2019-02-21T09:20:47.841Z,52.74
2019-02-21T09:21:46.691Z,51.38
2019-02-21T09:22:46.682Z,51.81
2019-02-21T09:23:46.690Z,52.74
2019-02-21T09:24:46.661Z,52.00
2019-02-21T09:25:49.505Z,52.10
2019-02-21T09:27:00.321Z,51.46
2019-02-21T09:27:46.632Z,51.46
2019-02-21T09:28:46.624Z,51.33
2019-02-21T09:29:46.616Z,51.63
2019-02-21T09:30:46.604Z,50.91
2019-02-21T09:31:46.633Z,51.35
2019-02-21T09:32:46.585Z,51.76
2019-02-21T09:33:46.572Z,51.57
2019-02-21T09:34:46.557Z,50.70
2019-02-21T09:35:46.548Z,51.01
2019-02-21T09:36:46.542Z,50.27
2019-02-21T09:37:46.546Z,50.59
2019-02-21T09:38:46.551Z,50.99
2019-02-21T09:39:46.532Z,50.89
2019-02-21T09:40:46.500Z,49.42
2019-02-21T09:41:46.493Z,51.12
2019-02-21T09:42:46.509Z,49.63
2019-02-21T09:43:46.466Z,49.29
2019-02-21T09:44:46.452Z,49.52
2019-02-21T09:45:46.442Z,49.82
2019-02-21T09:46:46.429Z,49.32
2019-02-21T09:47:46.419Z,50.35
2019-02-21T09:48:46.450Z,49.40
2019-02-21T09:49:46.405Z,50.54
2019-02-21T09:50:46.395Z,49.38
2019-02-21T09:51:46.385Z,49.35
2019-02-21T09:52:46.370Z,49.46
2019-02-21T09:53:46.391Z,49.27
2019-02-21T09:54:47.490Z,48.74
2019-02-21T09:55:46.333Z,49.91
2019-02-21T09:56:52.828Z,49.78
2019-02-21T09:59:00.929Z,48.61
2019-02-21T10:00:00.931Z,48.10
2019-02-21T10:01:00.892Z,48.32
2019-02-21T10:02:00.872Z,48.74
2019-02-21T10:03:00.871Z,48.40
2019-02-21T10:04:00.864Z,47.57
2019-02-21T10:05:05.110Z,48.74
2019-02-21T10:06:01.009Z,47.76
2019-02-21T10:07:00.852Z,47.78
2019-02-21T10:08:00.813Z,47.47
2019-02-21T10:09:08.098Z,47.78
2019-02-21T10:10:01.167Z,47.67
2019-02-21T10:11:01.010Z,48.10
2019-02-21T10:13:16.557Z,47.17
2019-02-21T10:14:16.499Z,47.27
2019-02-21T10:15:23.766Z,48.32
2019-02-21T10:16:16.467Z,47.47
2019-02-21T10:17:16.451Z,47.87
2019-02-21T10:18:16.453Z,47.66
2019-02-21T10:19:16.482Z,47.55
2019-02-21T10:20:16.413Z,47.55
2019-02-21T10:21:16.417Z,47.44
2019-02-21T10:23:32.745Z,45.85
2019-02-21T10:26:15.236Z,46.81
2019-02-21T10:27:24.471Z,46.83
2019-02-21T10:28:15.207Z,47.34
2019-02-21T10:29:15.188Z,46.83
2019-02-21T10:31:31.854Z,47.17
2019-02-21T10:32:31.635Z,46.51
2019-02-21T10:33:31.607Z,46.91
2019-02-21T10:34:31.602Z,46.49
2019-02-21T10:35:31.595Z,47.21
2019-02-21T10:36:31.587Z,47.00
2019-02-21T10:37:31.570Z,47.10
2019-02-21T10:38:31.566Z,46.66
2019-02-21T10:39:31.538Z,46.47
2019-02-21T10:40:33.367Z,46.68
2019-02-21T10:41:31.525Z,46.89
2019-02-21T10:42:31.555Z,47.10
2019-02-21T10:43:31.529Z,45.53
2019-02-21T10:44:31.495Z,45.96
2019-02-21T10:45:31.502Z,46.06
2019-02-21T10:46:31.483Z,46.28
2019-02-21T10:47:31.474Z,46.17
2019-02-21T10:48:31.641Z,46.28
2019-02-21T10:49:31.433Z,46.06
2019-02-21T10:50:31.431Z,46.06
2019-02-21T10:51:31.424Z,46.17
2019-02-21T10:52:31.408Z,45.85
2019-02-21T10:53:31.505Z,45.30
2019-02-21T10:54:31.473Z,45.75
2019-02-21T10:55:31.421Z,45.85
2019-02-21T10:56:31.367Z,46.49
2019-02-21T10:57:32.078Z,47.31
2019-02-21T10:58:31.346Z,46.87
2019-02-21T10:59:32.096Z,47.30
2019-02-21T11:00:31.377Z,46.66
2019-02-21T11:02:52.791Z,45.70
2019-02-21T11:03:52.478Z,45.30
2019-02-21T11:04:55.094Z,45.28
2019-02-21T11:05:52.469Z,46.23
2019-02-21T11:06:52.452Z,45.83
2019-02-21T11:07:52.476Z,46.45
2019-02-21T11:08:52.459Z,46.55
2019-02-21T11:09:52.411Z,46.45
2019-02-21T11:10:52.427Z,46.02
2019-02-21T11:11:52.441Z,45.92
2019-02-21T11:12:52.419Z,45.07
2019-02-21T11:13:52.386Z,45.81
2019-02-21T11:15:00.631Z,45.83
2019-02-21T11:15:52.362Z,45.92
2019-02-21T11:16:52.336Z,44.75
2019-02-21T11:17:52.402Z,45.92
2019-02-21T11:20:26.680Z,44.84
2019-02-21T11:21:26.471Z,45.37
2019-02-21T11:22:27.456Z,44.73
2019-02-21T11:23:26.437Z,45.68
2019-02-21T11:24:26.443Z,44.73
2019-02-21T11:25:26.424Z,45.49
2019-02-21T11:26:26.584Z,44.75
2019-02-21T11:27:26.437Z,45.28
2019-02-21T11:28:26.384Z,44.75
2019-02-21T11:29:26.377Z,44.84
2019-02-21T11:30:26.366Z,43.48
2019-02-21T11:31:27.945Z,44.22
2019-02-21T11:32:33.549Z,45.17
2019-02-21T11:33:26.371Z,44.12
2019-02-21T11:34:26.337Z,44.09
2019-02-21T11:35:26.335Z,44.94
2019-02-21T11:37:50.049Z,43.79
2019-02-21T11:38:49.943Z,43.05
2019-02-21T11:39:49.924Z,43.05
2019-02-21T11:40:49.956Z,44.22
2019-02-21T11:43:02.460Z,44.62
2019-02-21T11:43:59.975Z,44.41
2019-02-21T11:45:08.476Z,42.84
2019-02-21T11:46:00.033Z,44.32
2019-02-21T11:47:00.122Z,44.62
2019-02-21T11:47:59.947Z,44.54
2019-02-21T11:49:00.197Z,44.43
2019-02-21T11:49:59.990Z,44.09
2019-02-21T11:50:59.917Z,44.20
2019-02-21T11:52:09.789Z,43.05
2019-02-21T11:53:00.987Z,43.14
2019-02-21T11:53:59.897Z,43.16
2019-02-21T11:54:59.939Z,42.71
2019-02-21T11:56:00.233Z,43.88
2019-02-21T11:57:00.924Z,44.41
2019-02-21T11:57:59.870Z,44.82
2019-02-21T11:58:59.857Z,44.07
2019-02-21T11:59:59.838Z,44.71
2019-02-21T12:00:59.836Z,43.23
2019-02-21T12:01:59.831Z,43.97
2019-02-21T12:02:59.847Z,42.80
2019-02-21T12:03:59.767Z,44.09
2019-02-21T12:04:59.837Z,44.82
2019-02-21T12:06:00.251Z,43.23
2019-02-21T12:06:59.746Z,43.76
2019-02-21T12:07:59.744Z,43.97
2019-02-21T12:08:59.725Z,43.86
2019-02-21T12:09:59.783Z,42.50
2019-02-21T12:10:59.805Z,44.82
2019-02-21T12:11:59.732Z,44.92
2019-02-21T12:12:59.715Z,44.16
2019-02-21T12:13:59.667Z,43.12
2019-02-21T12:15:07.458Z,44.07
2019-02-21T12:15:59.633Z,44.29
2019-02-21T12:16:59.642Z,43.21
2019-02-21T12:17:59.614Z,42.61
2019-02-21T12:18:59.614Z,43.01
2019-02-21T12:19:59.603Z,43.14
2019-02-21T12:20:59.620Z,42.93
2019-02-21T12:21:59.596Z,43.88
2019-02-21T12:22:59.563Z,43.24
2019-02-21T12:23:59.547Z,43.77
2019-02-21T12:24:59.537Z,42.80
2019-02-21T12:25:59.534Z,42.82
2019-02-21T12:26:59.572Z,42.80
2019-02-21T12:27:59.510Z,43.12
2019-02-21T12:28:59.498Z,43.24
2019-02-21T12:29:59.493Z,43.27
2019-02-21T12:30:59.479Z,42.63
2019-02-21T12:31:59.468Z,43.14
2019-02-21T12:32:59.514Z,43.24
2019-02-21T12:33:59.449Z,43.67
2019-02-21T12:34:59.452Z,43.35
2019-02-21T12:35:59.715Z,43.04
2019-02-21T12:36:59.452Z,43.24
2019-02-21T12:37:59.402Z,42.82
2019-02-21T12:38:59.431Z,43.24
2019-02-21T12:39:59.391Z,43.99
2019-02-21T12:40:59.368Z,44.18
2019-02-21T12:41:59.361Z,43.14
2019-02-21T12:42:59.417Z,42.82
2019-02-21T12:43:59.334Z,42.82
2019-02-21T12:44:59.368Z,43.77
2019-02-21T12:46:11.189Z,43.14
2019-02-21T12:46:59.314Z,42.82
2019-02-21T12:47:59.326Z,43.88
2019-02-21T12:48:59.442Z,44.31
2019-02-21T12:49:59.329Z,43.54
2019-02-21T12:50:59.408Z,43.67
2019-02-21T12:51:59.269Z,42.93
2019-02-21T12:52:59.247Z,42.71
2019-02-21T12:53:59.233Z,44.12
2019-02-21T12:54:59.233Z,44.43
2019-02-21T12:55:59.232Z,44.20
2019-02-21T12:56:59.312Z,44.94
2019-02-21T12:57:59.199Z,44.20
2019-02-21T12:58:59.188Z,44.64
2019-02-21T12:59:59.182Z,45.07
2019-02-21T13:00:59.166Z,44.22
2019-02-21T13:01:59.154Z,44.62
2019-02-21T13:02:59.176Z,44.94
2019-02-21T13:03:59.127Z,44.09
2019-02-21T13:04:59.122Z,44.41
2019-02-21T13:05:59.106Z,44.09
2019-02-21T13:06:59.132Z,45.26
2019-02-21T13:07:59.092Z,43.35
2019-02-21T13:08:59.122Z,45.05
2019-02-21T13:09:59.069Z,45.26
2019-02-21T13:10:59.112Z,44.94
2019-02-21T13:11:59.047Z,45.37
2019-02-21T13:12:59.059Z,44.60
2019-02-21T13:13:59.027Z,45.26
2019-02-21T13:14:59.041Z,44.94
2019-02-21T13:15:59.006Z,44.62
2019-02-21T13:17:11.917Z,43.88
2019-02-21T13:17:58.979Z,44.41
2019-02-21T13:18:58.983Z,43.88
2019-02-21T13:19:58.999Z,45.37
2019-02-21T13:20:59.042Z,45.15
2019-02-21T13:21:58.939Z,45.15
2019-02-21T13:22:58.930Z,45.15
2019-02-21T13:23:58.925Z,44.73
2019-02-21T13:24:58.932Z,44.41
2019-02-21T13:25:58.908Z,44.94
2019-02-21T13:26:58.894Z,44.09
2019-02-21T13:27:58.894Z,45.89
2019-02-21T13:28:58.888Z,45.05
2019-02-21T13:29:58.858Z,45.15
2019-02-21T13:30:58.856Z,45.15
2019-02-21T13:31:58.891Z,44.75
2019-02-21T13:32:58.839Z,44.96
2019-02-21T13:33:58.809Z,43.88
2019-02-21T13:34:58.806Z,44.43
2019-02-21T13:35:58.794Z,43.79
2019-02-21T13:36:58.846Z,44.22
2019-02-21T13:37:58.814Z,44.09
2019-02-21T13:38:58.792Z,44.32
2019-02-21T13:40:00.597Z,44.96
2019-02-21T13:40:58.751Z,44.96
2019-02-21T13:41:58.727Z,45.39
2019-02-21T13:42:58.725Z,45.26
2019-02-21T13:43:58.861Z,44.01
2019-02-21T13:44:58.724Z,43.90
2019-02-21T13:45:59.454Z,43.90
2019-02-21T13:46:58.691Z,44.43
2019-02-21T13:48:08.893Z,43.79
2019-02-21T13:48:58.676Z,44.32
2019-02-21T13:49:58.663Z,44.01
2019-02-21T13:50:58.629Z,44.85
2019-02-21T13:51:58.624Z,44.85
2019-02-21T13:52:58.614Z,44.32
2019-02-21T13:53:58.598Z,45.07
2019-02-21T13:54:58.612Z,45.39
2019-02-21T13:55:58.617Z,44.96
2019-02-21T13:56:58.572Z,44.64
2019-02-21T13:57:58.555Z,44.96
2019-02-21T13:58:58.576Z,44.01
2019-02-21T13:59:58.541Z,45.07
2019-02-21T14:00:58.554Z,44.22
2019-02-21T14:01:58.687Z,44.75
2019-02-21T14:02:58.514Z,43.79
2019-02-21T14:03:58.498Z,43.69
2019-02-21T14:04:58.940Z,44.85
2019-02-21T14:06:03.659Z,44.43
2019-02-21T14:06:59.509Z,45.20
2019-02-21T14:07:58.457Z,45.49
2019-02-21T14:08:58.449Z,45.17
2019-02-21T14:09:58.433Z,44.64
2019-02-21T14:10:58.425Z,45.92
2019-02-21T14:11:58.415Z,44.54
2019-02-21T14:12:58.440Z,44.13
2019-02-21T14:13:58.391Z,44.01
2019-02-21T14:14:58.385Z,45.17
2019-02-21T14:15:58.378Z,45.49
2019-02-21T14:16:58.356Z,44.87
2019-02-21T14:17:58.351Z,45.20
2019-02-21T14:19:10.545Z,44.67
2019-02-21T14:19:58.323Z,44.77
2019-02-21T14:20:58.319Z,45.51
2019-02-21T14:21:58.327Z,44.45
2019-02-21T14:22:58.294Z,45.30
2019-02-21T14:23:58.345Z,44.98
2019-02-21T14:24:58.309Z,45.72
2019-02-21T14:25:58.267Z,46.47
2019-02-21T14:26:58.263Z,45.51
2019-02-21T14:27:58.264Z,45.20
2019-02-21T14:28:58.231Z,45.00
2019-02-21T14:29:58.221Z,44.67
2019-02-21T14:30:58.383Z,44.68
2019-02-21T14:31:58.197Z,44.68
2019-02-21T14:32:58.200Z,44.67
2019-02-21T14:33:59.067Z,45.11
2019-02-21T14:34:58.184Z,46.36
2019-02-21T14:35:58.155Z,45.96
2019-02-21T14:37:01.020Z,45.75
2019-02-21T14:37:58.137Z,45.21
2019-02-21T14:38:58.148Z,46.06
2019-02-21T14:39:58.123Z,45.43
2019-02-21T14:40:58.110Z,45.53
2019-02-21T14:41:58.095Z,45.85
2019-02-21T14:42:58.135Z,45.96
2019-02-21T14:44:00.389Z,45.85
2019-02-21T14:44:58.077Z,45.00
2019-02-21T14:45:58.062Z,45.98
2019-02-21T14:46:58.055Z,45.96
2019-02-21T14:47:58.212Z,45.43
2019-02-21T14:48:58.024Z,45.21
2019-02-21T14:50:09.657Z,45.75
2019-02-21T14:50:58.013Z,45.21
2019-02-21T14:51:57.992Z,45.55
2019-02-21T14:52:58.002Z,46.38
2019-02-21T14:53:58.021Z,45.23
2019-02-21T14:54:57.961Z,45.55
2019-02-21T14:55:57.955Z,45.45
2019-02-21T14:56:57.945Z,45.34
2019-02-21T14:57:57.929Z,46.19
2019-02-21T14:58:57.941Z,44.92
2019-02-21T14:59:57.915Z,45.34
2019-02-21T15:00:57.906Z,45.98
2019-02-21T15:01:57.890Z,46.08
2019-02-21T15:02:58.122Z,45.79
2019-02-21T15:03:57.870Z,45.26
2019-02-21T15:04:57.880Z,45.68
2019-02-21T15:05:57.845Z,45.45
2019-02-21T15:06:57.833Z,45.66
2019-02-21T15:07:57.823Z,46.95
2019-02-21T15:08:57.819Z,46.74
2019-02-21T15:09:57.805Z,45.79
2019-02-21T15:10:57.879Z,45.47
2019-02-21T15:11:57.782Z,45.68
2019-02-21T15:12:57.775Z,45.79
2019-02-21T15:13:57.768Z,45.68
2019-02-21T15:14:57.751Z,46.21
2019-02-21T15:15:57.748Z,46.64
2019-02-21T15:16:57.787Z,47.06
2019-02-21T15:18:06.863Z,46.74
2019-02-21T15:18:58.709Z,46.32
2019-02-21T15:19:57.701Z,46.11
2019-02-21T15:21:08.113Z,46.74
2019-02-21T15:21:57.710Z,47.06
2019-02-21T15:22:57.681Z,46.74
2019-02-21T15:23:57.661Z,46.95
2019-02-21T15:24:57.662Z,46.44
2019-02-21T15:25:57.652Z,47.38
2019-02-21T15:27:08.174Z,47.08
2019-02-21T15:27:58.659Z,47.30
2019-02-21T15:28:59.946Z,47.30
2019-02-21T15:29:57.690Z,47.40
2019-02-21T15:30:57.594Z,48.14
2019-02-21T15:31:57.576Z,48.59
2019-02-21T15:32:57.563Z,47.93
2019-02-21T15:33:57.567Z,49.12
2019-02-21T15:34:57.548Z,48.57
2019-02-21T15:35:57.535Z,48.49
2019-02-21T15:36:57.544Z,48.49
2019-02-21T15:37:57.517Z,48.49
2019-02-21T15:38:57.502Z,48.49
2019-02-21T15:39:57.533Z,48.17
2019-02-21T15:40:57.486Z,48.49
2019-02-21T15:41:57.478Z,48.38
2019-02-21T15:42:57.471Z,48.38
2019-02-21T15:43:57.479Z,48.59
2019-02-21T15:44:57.442Z,47.85
2019-02-21T15:45:57.470Z,48.38
2019-02-21T15:46:57.420Z,48.49
2019-02-21T15:47:57.435Z,49.02
2019-02-21T15:48:57.428Z,49.12
2019-02-21T15:49:57.388Z,48.59
2019-02-21T15:50:57.378Z,48.80
2019-02-21T15:52:08.145Z,49.44
2019-02-21T15:52:57.412Z,49.44
2019-02-21T15:53:57.347Z,49.44
2019-02-21T15:54:57.348Z,49.66
2019-02-21T15:55:57.331Z,49.55
2019-02-21T15:56:57.317Z,49.66
2019-02-21T15:58:03.828Z,49.02
2019-02-21T15:58:58.295Z,49.55
2019-02-21T15:59:57.299Z,49.44
2019-02-21T16:00:57.275Z,50.32
2019-02-21T16:01:57.270Z,50.42
2019-02-21T16:02:57.256Z,50.63
2019-02-21T16:03:57.421Z,50.32
2019-02-21T16:04:57.232Z,50.85
2019-02-21T16:05:57.251Z,50.63
2019-02-21T16:06:57.212Z,50.95
2019-02-21T16:07:57.202Z,50.98
2019-02-21T16:08:57.205Z,51.48
2019-02-21T16:09:57.286Z,50.85
2019-02-21T16:10:57.172Z,50.76
2019-02-21T16:11:57.590Z,51.48
2019-02-21T16:12:57.664Z,51.48
2019-02-21T16:14:03.182Z,51.29
2019-02-21T16:14:58.181Z,51.38
2019-02-21T16:15:57.120Z,51.51
2019-02-21T16:16:57.114Z,51.81
2019-02-21T16:17:57.099Z,51.93
2019-02-21T16:18:58.802Z,52.04
2019-02-21T16:19:57.105Z,52.04
2019-02-21T16:20:57.097Z,52.04
2019-02-21T16:21:57.058Z,51.83
2019-02-21T16:23:07.417Z,51.96
2019-02-21T16:23:57.068Z,52.04
2019-02-21T16:24:57.026Z,51.83
2019-02-21T16:25:57.036Z,52.15
2019-02-21T16:26:57.182Z,51.62
2019-02-21T16:27:57.001Z,51.62
2019-02-21T16:28:56.990Z,51.93
2019-02-21T16:29:56.980Z,52.79
2019-02-21T16:30:56.977Z,52.68
2019-02-21T16:31:56.959Z,51.93
2019-02-21T16:32:56.961Z,52.17
2019-02-21T16:33:56.954Z,52.04
2019-02-21T16:34:56.928Z,52.04
2019-02-21T16:35:56.920Z,52.59
2019-02-21T16:37:02.525Z,51.93
2019-02-21T16:37:57.931Z,52.25
2019-02-21T16:38:56.893Z,52.04
2019-02-21T16:39:56.876Z,52.81
2019-02-21T16:40:56.869Z,52.49
2019-02-21T16:41:56.848Z,51.62
2019-02-21T16:42:56.854Z,52.89
2019-02-21T16:43:57.002Z,52.49
2019-02-21T16:44:56.821Z,53.23
2019-02-21T16:46:07.187Z,53.02
2019-02-21T16:46:57.804Z,53.45
2019-02-21T16:47:56.789Z,53.58
2019-02-21T16:48:56.793Z,53.02
2019-02-21T16:49:58.307Z,53.13
2019-02-21T16:50:56.760Z,53.23
2019-02-21T16:51:56.747Z,53.23
2019-02-21T16:52:56.749Z,52.40
2019-02-21T16:54:06.621Z,52.92
2019-02-21T16:54:56.736Z,52.39
2019-02-21T16:55:56.751Z,53.34
2019-02-21T16:56:56.700Z,53.23
2019-02-21T16:57:56.697Z,53.34
2019-02-21T16:58:56.680Z,53.69
2019-02-21T16:59:56.662Z,53.05
2019-02-21T17:00:56.938Z,53.26
2019-02-21T17:01:56.651Z,53.23
2019-02-21T17:02:56.712Z,53.45
2019-02-21T17:03:56.627Z,53.23
2019-02-21T17:04:56.619Z,53.47
2019-02-21T17:05:56.609Z,53.58
2019-02-21T17:06:56.593Z,53.58
2019-02-21T17:07:56.630Z,53.58
2019-02-21T17:08:56.590Z,53.47
2019-02-21T17:09:56.564Z,53.58
2019-02-21T17:10:56.554Z,53.79
2019-02-21T17:11:56.549Z,53.47
2019-02-21T17:12:56.538Z,53.16
2019-02-21T17:13:56.592Z,53.79
2019-02-21T17:14:56.530Z,53.58
2019-02-21T17:15:56.501Z,53.90
2019-02-21T17:16:56.491Z,54.00
2019-02-21T17:17:56.478Z,53.90
2019-02-21T17:18:56.478Z,54.03
2019-02-21T17:19:56.508Z,53.81
2019-02-21T17:20:56.451Z,53.47
2019-02-21T17:21:56.447Z,53.69
2019-02-21T17:22:56.438Z,53.79
2019-02-21T17:23:56.446Z,53.26
2019-02-21T17:25:08.235Z,53.26
2019-02-21T17:25:56.417Z,53.37
2019-02-21T17:26:56.394Z,53.26
2019-02-21T17:27:56.398Z,53.37
2019-02-21T17:28:56.370Z,53.47
2019-02-21T17:29:56.362Z,52.83
2019-02-21T17:30:56.360Z,53.47
2019-02-21T17:31:56.378Z,53.26
2019-02-21T17:32:56.351Z,53.47
2019-02-21T17:33:56.315Z,53.60
2019-02-21T17:34:56.307Z,53.79
2019-02-21T17:35:56.310Z,53.37
2019-02-21T17:36:56.287Z,53.81
2019-02-21T17:37:56.283Z,54.24
2019-02-21T17:38:56.283Z,54.14
2019-02-21T17:39:56.259Z,54.46
2019-02-21T17:40:56.248Z,54.14
2019-02-21T17:41:56.234Z,54.57
2019-02-21T17:42:56.224Z,54.67
2019-02-21T17:43:56.263Z,54.99
2019-02-21T17:44:56.213Z,54.43
2019-02-21T17:45:56.194Z,54.57
2019-02-21T17:46:56.261Z,54.67
2019-02-21T17:47:56.179Z,54.67
2019-02-21T17:48:56.168Z,54.67
2019-02-21T17:49:56.163Z,54.99
2019-02-21T17:50:56.150Z,54.69
2019-02-21T17:51:56.147Z,54.80
2019-02-21T17:52:56.125Z,55.87
2019-02-21T17:53:56.117Z,54.77
2019-02-21T17:54:56.102Z,54.80
2019-02-21T17:56:07.267Z,54.80
2019-02-21T17:56:56.088Z,55.01
2019-02-21T17:57:56.077Z,54.59
2019-02-21T17:58:56.080Z,54.91
2019-02-21T17:59:56.054Z,54.67
2019-02-21T18:00:56.040Z,55.55
2019-02-21T18:01:56.052Z,55.33
2019-02-21T18:02:56.019Z,55.41
2019-02-21T18:03:56.027Z,55.44
2019-02-21T18:04:55.998Z,55.55
2019-02-21T18:05:56.276Z,55.04
2019-02-21T18:06:55.979Z,55.44
2019-02-21T18:07:56.147Z,55.12
2019-02-21T18:08:56.033Z,55.65
2019-02-21T18:09:55.952Z,55.33
2019-02-21T18:10:55.953Z,55.98
2019-02-21T18:11:55.927Z,56.29
2019-02-21T18:12:55.913Z,56.40
2019-02-21T18:13:55.928Z,56.43
2019-02-21T18:14:55.912Z,55.65
2019-02-21T18:15:55.882Z,55.87
2019-02-21T18:16:55.880Z,56.32
2019-02-21T18:17:55.864Z,56.32
2019-02-21T18:18:55.852Z,56.74
2019-02-21T18:19:55.881Z,57.06
2019-02-21T18:20:55.831Z,56.64
2019-02-21T18:21:55.827Z,57.09
2019-02-21T18:22:55.837Z,57.06
2019-02-21T18:23:55.812Z,57.06
2019-02-21T18:24:55.796Z,57.06
2019-02-21T18:25:55.905Z,56.96
2019-02-21T18:27:05.971Z,56.74
2019-02-21T18:27:55.815Z,56.74
2019-02-21T18:28:55.756Z,57.31
2019-02-21T18:29:55.743Z,57.39
2019-02-21T18:30:55.741Z,57.06
2019-02-21T18:31:55.763Z,56.64
2019-02-21T18:32:55.714Z,57.06
2019-02-21T18:33:55.700Z,57.28
2019-02-21T18:34:55.691Z,57.20
2019-02-21T18:35:55.696Z,56.96
2019-02-21T18:36:55.675Z,57.41
2019-02-21T18:37:55.695Z,57.28
2019-02-21T18:38:55.651Z,57.41
2019-02-21T18:39:55.639Z,57.41
2019-02-21T18:40:55.636Z,57.52
2019-02-21T18:41:55.639Z,57.73
2019-02-21T18:42:55.605Z,57.95
2019-02-21T18:43:55.637Z,58.05
2019-02-21T18:44:55.592Z,57.95
2019-02-21T18:45:57.500Z,58.15
2019-02-21T18:46:55.572Z,58.15
2019-02-21T18:47:55.574Z,58.15
2019-02-21T18:48:55.543Z,58.05
2019-02-21T18:49:55.588Z,58.26
2019-02-21T18:50:55.524Z,58.26
2019-02-21T18:51:55.517Z,58.69
2019-02-21T18:52:55.508Z,58.69
2019-02-21T18:53:55.496Z,58.48
2019-02-21T18:54:55.490Z,58.80
2019-02-21T18:55:55.513Z,58.91
2019-02-21T18:56:55.469Z,58.80
2019-02-21T18:58:05.731Z,58.58
2019-02-21T18:58:55.451Z,58.58
2019-02-21T18:59:55.430Z,58.91
2019-02-21T19:00:55.425Z,59.12
2019-02-21T19:01:55.463Z,59.12
2019-02-21T19:02:55.419Z,58.80
2019-02-21T19:03:55.392Z,59.44
2019-02-21T19:04:55.387Z,59.68
2019-02-21T19:05:55.375Z,59.57
2019-02-21T19:06:55.364Z,59.55
2019-02-21T19:08:00.900Z,59.65
2019-02-21T19:08:56.347Z,59.78
2019-02-21T19:09:55.333Z,59.68
2019-02-21T19:10:56.268Z,59.78
2019-02-21T19:11:55.312Z,59.78
2019-02-21T19:12:55.359Z,59.89
2019-02-21T19:13:55.291Z,59.89
2019-02-21T19:14:55.282Z,59.57
2019-02-21T19:15:55.270Z,59.76
2019-02-21T19:16:55.263Z,60.11
2019-02-21T19:17:55.262Z,60.00
2019-02-21T19:18:55.283Z,60.11
2019-02-21T19:19:55.225Z,60.75
2019-02-21T19:20:55.233Z,60.42
2019-02-21T19:21:55.205Z,60.64
2019-02-21T19:22:55.200Z,61.07
2019-02-21T19:23:55.186Z,60.88
2019-02-21T19:24:55.233Z,60.99
2019-02-21T19:25:55.169Z,60.53
2019-02-21T19:26:55.156Z,60.53
2019-02-21T19:27:55.146Z,60.64
2019-02-21T19:29:05.304Z,60.46
2019-02-21T19:29:55.134Z,60.96
2019-02-21T19:30:55.125Z,61.20
2019-02-21T19:31:55.105Z,60.88
2019-02-21T19:32:55.099Z,60.96
2019-02-21T19:33:55.086Z,61.31
2019-02-21T19:34:55.070Z,61.63
2019-02-21T19:35:55.074Z,61.63
2019-02-21T19:36:55.097Z,61.10
2019-02-21T19:37:55.054Z,60.99
2019-02-21T19:38:55.037Z,61.41
2019-02-21T19:39:55.038Z,61.66
2019-02-21T19:40:55.014Z,61.10
2019-02-21T19:41:55.000Z,61.31
2019-02-21T19:42:55.028Z,61.95
2019-02-21T19:43:54.996Z,61.52
2019-02-21T19:44:54.973Z,61.55